MM31 weather

Fausto Vega Santander Airport
Veracruz, Mexico

Public forecast

Using degrees Celsius for public forecast. Weather courtesy of forecast.io.

METAR (pilot weather report)

Report is more than 6 hours old.

Closest report is El Tajín National Airport, 21.2 nm (39.3 km) SSW. Retrieved 2019/02/17 00:42 UTC (12 hours ago):

MMPA 170042Z 06006KT 6SM SKC 27/19 A2959 RMK HZY

TAF (pilot weather forecast)

Forecast is more than 12 hours old.

Closest forecast is El Tajín National Airport, 21.2 nm (39.3 km) SSW. Retrieved 2019/02/16 18:57 UTC (17 hours ago):

TAF TAF MMPA 161754Z 1618/1718 09010KT 5SM HZ SKC FM170100 00000KT 5SM HZ SKC TEMPO 1710/1714 1SM BR OVC006